Time;durP1;ratioP1;P1;durP2;ratioP2;P2;SDS_P1;SDS_P2;PMS_P1;PMS_P2;Temp;Humidity;BMP_temperature;BMP_pressure;BME280_temperature;BME280_humidity;BME280_pressure;Samples;Min_cycle;Max_cycle;Signal;HPM_P1;HPM_P2
2022/10/26 00:01:05;;;;;;;;;;;;;;;12.61;90.84;100605.18;86040;1291;87824;-59
2022/10/26 00:03:15;;;;;;;;;;;;;;;12.62;90.87;100602.77;86013;1295;95151;-58
2022/10/26 00:05:22;;;;;;;;;;;;;;;12.65;90.85;100602.52;86019;1291;81444;-58
2022/10/26 00:07:30;;;;;;;;;;;;;;;12.66;90.85;100606.88;86031;1298;82909;-59
2022/10/26 00:09:40;;;;;;;;;;;;;;;12.66;90.93;100604.50;86043;1291;97945;-58
2022/10/26 00:11:47;;;;;;;;;;;;;;;12.66;90.99;100605.00;86072;1298;89247;-58
2022/10/26 00:13:55;;;;;;;;;;;;;;;12.70;91.02;100607.41;86020;1285;95371;-58
2022/10/26 00:16:07;;;;;;;;;;;;;;;12.71;90.93;100609.67;85913;1294;80429;-58
2022/10/26 00:18:14;;;;;;;;;;;;;;;12.73;91.09;100615.11;85995;1298;82386;-59
2022/10/26 00:20:22;;;;;;;;;;;;;;;12.75;91.13;100615.41;86050;1298;98534;-59
2022/10/26 00:22:28;;;;;;;;;;;;;;;12.78;91.04;100610.13;86029;1291;86998;-59
2022/10/26 00:24:35;;;;;;;;;;;;;;;12.80;91.18;100607.10;86003;1294;93935;-58
2022/10/26 00:26:43;;;;;;;;;;;;;;;12.83;91.20;100605.90;86044;1296;81937;-58
2022/10/26 00:28:52;;;;;;;;;;;;;;;12.83;91.11;100603.57;85889;1298;81543;-59
2022/10/26 00:31:05;;;;;;;;;;;;;;;12.84;91.13;100605.05;86044;1297;97998;-59
2022/10/26 00:33:14;;;;;;;;;;;;;;;12.84;91.09;100607.23;86051;1298;87433;-59
2022/10/26 00:35:21;;;;;;;;;;;;;;;12.82;91.14;100609.33;86074;1298;95951;-59
2022/10/26 00:37:29;;;;;;;;;;;;;;;12.81;90.97;100611.70;86039;1295;81934;-59
2022/10/26 00:39:36;;;;;;;;;;;;;;;12.83;91.07;100611.83;86082;1290;83095;-58
2022/10/26 00:41:43;;;;;;;;;;;;;;;12.84;91.18;100611.67;86015;1282;96713;-58
2022/10/26 00:43:53;;;;;;;;;;;;;;;12.87;91.07;100611.70;86044;1282;88757;-60
2022/10/26 00:46:01;;;;;;;;;;;;;;;12.86;91.05;100609.45;85925;1294;95242;-59
2022/10/26 00:48:14;;;;;;;;;;;;;;;12.88;91.17;100611.50;86037;1290;81624;-60
2022/10/26 00:50:25;;;;;;;;;;;;;;;12.87;91.19;100609.91;86012;1298;81074;-58
2022/10/26 00:52:32;;;;;;;;;;;;;;;12.82;91.25;100606.91;86069;1298;97410;-59
2022/10/26 00:54:39;;;;;;;;;;;;;;;12.82;91.21;100608.13;86035;1290;89045;-59
2022/10/26 00:56:49;;;;;;;;;;;;;;;12.82;91.16;100607.45;86027;1290;94898;-58
2022/10/26 00:58:58;;;;;;;;;;;;;;;12.81;91.10;100607.57;86005;1294;80837;-58
2022/10/26 01:01:05;;;;;;;;;;;;;;;12.81;91.12;100605.73;86023;1298;82488;-58
2022/10/26 01:03:12;;;;;;;;;;;;;;;12.81;91.08;100607.03;85983;1291;98168;-59
2022/10/26 01:05:20;;;;;;;;;;;;;;;12.80;91.09;100608.48;86032;1298;86331;-59
2022/10/26 01:07:27;;;;;;;;;;;;;;;12.80;91.16;100611.20;86019;1292;93993;-58
2022/10/26 01:09:35;;;;;;;;;;;;;;;12.76;91.04;100605.91;86024;1297;81355;-58
2022/10/26 01:11:45;;;;;;;;;;;;;;;12.75;91.23;100609.52;86023;1290;81368;-58
2022/10/26 01:13:53;;;;;;;;;;;;;;;12.74;91.10;100610.40;86045;1291;97560;-58
2022/10/26 01:16:07;;;;;;;;;;;;;;;12.75;91.13;100612.87;86042;1298;89276;-58
2022/10/26 01:18:20;;;;;;;;;;;;;;;12.73;91.11;100612.02;86014;1291;95073;-58
2022/10/26 01:20:46;;;;;;;;;;;;;;;12.74;91.12;100612.69;86020;1298;81832;-58
2022/10/26 01:22:58;;;;;;;;;;;;;;;12.71;91.17;100613.59;86051;1282;80978;-59
2022/10/26 01:25:12;;;;;;;;;;;;;;;12.71;91.13;100617.47;86035;1291;98232;-58
2022/10/26 01:27:28;;;;;;;;;;;;;;;12.72;91.08;100618.95;85995;1291;87388;-58
2022/10/26 01:29:59;;;;;;;;;;;;;;;12.70;91.07;100616.79;86044;1292;95595;-58
2022/10/26 01:32:12;;;;;;;;;;;;;;;12.69;91.01;100621.46;86051;1297;82384;-58
2022/10/26 01:34:22;;;;;;;;;;;;;;;12.69;91.16;100620.48;86042;1298;82102;-58
2022/10/26 01:36:34;;;;;;;;;;;;;;;12.69;91.25;100618.41;86027;1298;98670;-59
2022/10/26 01:38:52;;;;;;;;;;;;;;;12.72;91.25;100619.30;86011;1291;88204;-59
2022/10/26 01:41:05;;;;;;;;;;;;;;;12.77;91.29;100623.60;86010;1298;94277;-58
2022/10/26 01:43:14;;;;;;;;;;;;;;;12.82;91.45;100621.91;86014;1291;81009;-59
2022/10/26 01:45:21;;;;;;;;;;;;;;;12.84;91.39;100621.31;86038;1297;82587;-59
2022/10/26 01:47:30;;;;;;;;;;;;;;;12.86;91.42;100625.96;86030;1288;99946;-60
2022/10/26 01:49:39;;;;;;;;;;;;;;;12.83;91.44;100626.43;86025;1291;88557;-58
2022/10/26 01:51:49;;;;;;;;;;;;;;;12.80;91.36;100625.77;86045;1298;94674;-58
2022/10/26 01:53:59;;;;;;;;;;;;;;;12.79;91.37;100625.04;86016;1290;79549;-58
2022/10/26 01:56:18;;;;;;;;;;;;;;;12.78;91.51;100628.80;85896;1300;82409;-58
2022/10/26 01:58:52;;;;;;;;;;;;;;;12.80;91.42;100627.42;86003;1291;99893;-59
2022/10/26 02:01:06;;;;;;;;;;;;;;;12.77;91.58;100628.02;86010;1291;87767;-58
2022/10/26 02:03:20;;;;;;;;;;;;;;;12.77;91.58;100622.59;86049;1292;93307;-59
2022/10/26 02:05:59;;;;;;;;;;;;;;;12.77;91.60;100623.18;86030;1290;81794;-59
2022/10/26 02:08:20;;;;;;;;;;;;;;;12.76;91.51;100630.88;86053;1294;81364;-58
2022/10/26 02:10:40;;;;;;;;;;;;;;;12.73;91.56;100633.20;86055;1291;98137;-58
2022/10/26 02:12:53;;;;;;;;;;;;;;;12.69;91.48;100635.39;86075;1291;88874;-58
2022/10/26 02:15:07;;;;;;;;;;;;;;;12.73;91.61;100638.42;85872;1294;94839;-58
2022/10/26 02:17:17;;;;;;;;;;;;;;;12.74;91.56;100637.41;86066;1291;82397;-60
2022/10/26 02:19:38;;;;;;;;;;;;;;;12.78;91.58;100637.20;86020;1291;82371;-58
2022/10/26 02:21:49;;;;;;;;;;;;;;;12.81;91.65;100645.86;86061;1298;98922;-59
2022/10/26 02:24:00;;;;;;;;;;;;;;;12.82;91.73;100643.29;86028;1291;88081;-59
2022/10/26 02:26:09;;;;;;;;;;;;;;;12.81;91.67;100647.48;86045;1285;94321;-59
2022/10/26 02:28:19;;;;;;;;;;;;;;;12.83;91.63;100646.74;85995;1291;81317;-58
2022/10/26 02:30:27;;;;;;;;;;;;;;;12.82;91.67;100644.49;86023;1295;81468;-58
2022/10/26 02:32:37;;;;;;;;;;;;;;;12.83;91.66;100644.07;86057;1297;99306;-58
2022/10/26 02:34:46;;;;;;;;;;;;;;;12.82;91.61;100643.98;86009;1284;86882;-59
2022/10/26 02:36:55;;;;;;;;;;;;;;;12.80;91.55;100644.98;86004;1298;95230;-59
2022/10/26 02:39:03;;;;;;;;;;;;;;;12.74;91.52;100641.38;86031;1291;82157;-59
2022/10/26 02:41:13;;;;;;;;;;;;;;;12.67;91.56;100641.38;86051;1298;81949;-59
2022/10/26 02:43:22;;;;;;;;;;;;;;;12.66;91.50;100641.83;86060;1291;99736;-59
2022/10/26 02:45:31;;;;;;;;;;;;;;;12.66;91.53;100647.55;86048;1298;87477;-59
2022/10/26 02:47:39;;;;;;;;;;;;;;;12.65;91.62;100649.45;86072;1290;95170;-59
2022/10/26 02:49:47;;;;;;;;;;;;;;;12.65;91.69;100649.49;86034;1291;81027;-59
2022/10/26 02:52:03;;;;;;;;;;;;;;;12.67;91.71;100649.33;86070;1298;81609;-59
2022/10/26 02:54:14;;;;;;;;;;;;;;;12.71;91.85;100649.57;86067;1291;98359;-59
2022/10/26 02:56:24;;;;;;;;;;;;;;;12.71;91.93;100652.87;86045;1297;86156;-59
2022/10/26 02:58:36;;;;;;;;;;;;;;;12.74;91.95;100655.15;86024;1291;95220;-59
2022/10/26 03:00:43;;;;;;;;;;;;;;;12.75;92.05;100653.86;86032;1297;83059;-59
2022/10/26 03:02:54;;;;;;;;;;;;;;;12.78;91.96;100656.48;86059;1291;82377;-58
2022/10/26 03:05:14;;;;;;;;;;;;;;;12.77;92.00;100659.33;86013;1291;100166;-58
2022/10/26 03:07:24;;;;;;;;;;;;;;;12.78;91.95;100663.10;86028;1298;87748;-58
2022/10/26 03:09:32;;;;;;;;;;;;;;;12.76;91.95;100668.29;86005;1292;94104;-58
2022/10/26 03:11:39;;;;;;;;;;;;;;;12.78;91.82;100667.06;86067;1297;81176;-58
2022/10/26 03:13:46;;;;;;;;;;;;;;;12.77;91.87;100668.14;86016;1297;82978;-59
2022/10/26 03:15:56;;;;;;;;;;;;;;;12.78;91.84;100672.11;86040;1290;100064;-59
2022/10/26 03:18:04;;;;;;;;;;;;;;;12.78;91.93;100674.15;85980;1291;88393;-58
2022/10/26 03:20:13;;;;;;;;;;;;;;;12.77;91.91;100677.90;86023;1290;95593;-59
2022/10/26 03:22:21;;;;;;;;;;;;;;;12.79;91.93;100680.38;86037;1297;82406;-59
2022/10/26 03:24:28;;;;;;;;;;;;;;;12.78;91.90;100681.20;86015;1298;82339;-59
2022/10/26 03:26:35;;;;;;;;;;;;;;;12.80;91.86;100684.02;86014;1290;98862;-59
2022/10/26 03:28:42;;;;;;;;;;;;;;;12.80;91.76;100688.02;86027;1298;88800;-59
2022/10/26 03:30:53;;;;;;;;;;;;;;;12.80;91.74;100686.15;86003;1291;95251;-61
2022/10/26 03:33:00;;;;;;;;;;;;;;;12.80;91.77;100683.60;86025;1301;82186;-57
2022/10/26 03:35:11;;;;;;;;;;;;;;;12.78;91.73;100685.16;86053;1291;81396;-59
2022/10/26 03:37:18;;;;;;;;;;;;;;;12.76;91.66;100687.94;86050;1291;99918;-58
2022/10/26 03:39:25;;;;;;;;;;;;;;;12.73;91.63;100688.74;86038;1298;88223;-59
2022/10/26 03:41:32;;;;;;;;;;;;;;;12.73;91.70;100689.63;86037;1298;94005;-59
2022/10/26 03:43:38;;;;;;;;;;;;;;;12.71;91.66;100691.20;86022;1295;81639;-59
2022/10/26 03:45:47;;;;;;;;;;;;;;;12.70;91.68;100691.58;86018;1295;81129;-58
2022/10/26 03:47:54;;;;;;;;;;;;;;;12.71;91.68;100698.17;86038;1290;97033;-59
2022/10/26 03:50:01;;;;;;;;;;;;;;;12.71;91.63;100701.50;86030;1298;88954;-59
2022/10/26 03:52:08;;;;;;;;;;;;;;;12.69;91.67;100703.66;86036;1290;95997;-58
2022/10/26 03:54:15;;;;;;;;;;;;;;;12.69;91.66;100702.20;86013;1291;81745;-58
2022/10/26 03:56:22;;;;;;;;;;;;;;;12.69;91.65;100702.77;86026;1298;82883;-59
2022/10/26 03:58:29;;;;;;;;;;;;;;;12.69;91.70;100702.56;86004;1292;99134;-59
2022/10/26 04:00:37;;;;;;;;;;;;;;;12.70;91.65;100705.23;86025;1294;86917;-59
2022/10/26 04:02:45;;;;;;;;;;;;;;;12.71;91.60;100705.58;85892;1301;93261;-58
2022/10/26 04:04:52;;;;;;;;;;;;;;;12.69;91.60;100705.83;86024;1298;81733;-59
2022/10/26 04:06:59;;;;;;;;;;;;;;;12.72;91.48;100700.63;86056;1291;80344;-59
2022/10/26 04:09:08;;;;;;;;;;;;;;;12.74;91.55;100696.77;86031;1297;97801;-58
2022/10/26 04:11:15;;;;;;;;;;;;;;;12.69;91.57;100698.85;86047;1291;88645;-59
2022/10/26 04:13:23;;;;;;;;;;;;;;;12.69;91.61;100701.20;86035;1290;94839;-58
2022/10/26 04:15:30;;;;;;;;;;;;;;;12.67;91.47;100704.83;86012;1291;82359;-59
2022/10/26 04:17:37;;;;;;;;;;;;;;;12.64;91.57;100704.02;86077;1274;82941;-59
2022/10/26 04:19:44;;;;;;;;;;;;;;;12.63;91.45;100706.89;86031;1298;96022;-58
2022/10/26 04:21:52;;;;;;;;;;;;;;;12.63;91.52;100707.65;86029;1298;87686;-59
2022/10/26 04:24:01;;;;;;;;;;;;;;;12.65;91.53;100705.11;86025;1295;94091;-59
2022/10/26 04:26:10;;;;;;;;;;;;;;;12.65;91.46;100702.23;86047;1291;81910;-59
2022/10/26 04:28:17;;;;;;;;;;;;;;;12.65;91.43;100706.58;85995;1290;82393;-58
2022/10/26 04:30:25;;;;;;;;;;;;;;;12.66;91.43;100705.30;86027;1298;99007;-58
2022/10/26 04:32:32;;;;;;;;;;;;;;;12.68;91.55;100704.55;86021;1298;88121;-58
2022/10/26 04:34:48;;;;;;;;;;;;;;;12.69;91.35;100711.08;85899;1294;97098;-58
2022/10/26 04:36:56;;;;;;;;;;;;;;;12.68;91.27;100708.35;85903;1294;81426;-60
2022/10/26 04:39:06;;;;;;;;;;;;;;;12.69;91.26;100709.98;86025;1297;80111;-58
2022/10/26 04:41:13;;;;;;;;;;;;;;;12.70;91.28;100710.50;86017;1291;100022;-58
2022/10/26 04:43:22;;;;;;;;;;;;;;;12.71;91.27;100715.38;86045;1298;88907;-58
2022/10/26 04:45:29;;;;;;;;;;;;;;;12.70;91.24;100716.33;85910;1293;96545;-59
2022/10/26 04:47:40;;;;;;;;;;;;;;;12.72;91.27;100720.40;86042;1298;81603;-59
2022/10/26 04:49:48;;;;;;;;;;;;;;;12.70;91.16;100724.52;86034;1292;80508;-59
2022/10/26 04:51:56;;;;;;;;;;;;;;;12.68;91.20;100726.59;86041;1298;99373;-58
2022/10/26 04:54:06;;;;;;;;;;;;;;;12.64;91.26;100726.20;86019;1297;88589;-59
2022/10/26 04:56:13;;;;;;;;;;;;;;;12.64;91.29;100728.36;86010;1290;93907;-58
2022/10/26 04:58:20;;;;;;;;;;;;;;;12.64;91.20;100732.00;86031;1297;82148;-59
2022/10/26 05:00:27;;;;;;;;;;;;;;;12.59;91.21;100732.83;86025;1298;82656;-58
2022/10/26 05:02:36;;;;;;;;;;;;;;;12.60;91.15;100738.35;86053;1298;99925;-58
2022/10/26 05:04:45;;;;;;;;;;;;;;;12.61;91.15;100738.86;86037;1291;87452;-58
2022/10/26 05:06:53;;;;;;;;;;;;;;;12.58;91.08;100740.58;86078;1298;94614;-59
2022/10/26 05:09:03;;;;;;;;;;;;;;;12.59;91.13;100740.02;86032;1291;82289;-59
2022/10/26 05:11:12;;;;;;;;;;;;;;;12.62;91.13;100739.08;85693;1290;468251;-59
2022/10/26 05:13:19;;;;;;;;;;;;;;;12.63;91.08;100740.83;86008;1297;99796;-59
2022/10/26 05:15:27;;;;;;;;;;;;;;;12.60;91.14;100745.23;86054;1282;87844;-60
2022/10/26 05:17:34;;;;;;;;;;;;;;;12.57;91.13;100747.20;86036;1298;92986;-59
2022/10/26 05:19:42;;;;;;;;;;;;;;;12.58;91.01;100754.25;86002;1298;82219;-59
2022/10/26 05:21:51;;;;;;;;;;;;;;;12.60;91.06;100755.31;86013;1291;80618;-59
2022/10/26 05:23:58;;;;;;;;;;;;;;;12.58;91.00;100761.63;86021;1298;98745;-59
2022/10/26 05:26:08;;;;;;;;;;;;;;;12.55;91.06;100761.86;86023;1299;89735;-59
2022/10/26 05:28:16;;;;;;;;;;;;;;;12.59;91.06;100764.68;86016;1291;95041;-59
2022/10/26 05:30:23;;;;;;;;;;;;;;;12.60;91.09;100768.21;86014;1298;80292;-59
2022/10/26 05:32:30;;;;;;;;;;;;;;;12.59;90.99;100766.94;86034;1297;81437;-60
2022/10/26 05:34:37;;;;;;;;;;;;;;;12.56;91.09;100770.55;86006;1297;98011;-60
2022/10/26 05:36:44;;;;;;;;;;;;;;;12.58;91.04;100767.64;86041;1291;86413;-58
2022/10/26 05:38:51;;;;;;;;;;;;;;;12.60;91.00;100771.04;85998;1298;93275;-59
2022/10/26 05:41:00;;;;;;;;;;;;;;;12.60;90.95;100773.63;85912;1300;81903;-59
2022/10/26 05:43:08;;;;;;;;;;;;;;;12.63;91.00;100776.61;86051;1290;83482;-58
2022/10/26 05:45:18;;;;;;;;;;;;;;;12.64;91.05;100776.27;86026;1290;97491;-59
2022/10/26 05:47:25;;;;;;;;;;;;;;;12.62;91.08;100778.92;86043;1292;87625;-58
2022/10/26 05:49:32;;;;;;;;;;;;;;;12.59;90.98;100778.52;86034;1298;93162;-59
2022/10/26 05:51:40;;;;;;;;;;;;;;;12.59;91.00;100780.48;86053;1292;80495;-59
2022/10/26 05:53:49;;;;;;;;;;;;;;;12.64;90.97;100783.50;86041;1299;82014;-59
2022/10/26 05:55:57;;;;;;;;;;;;;;;12.68;90.74;100783.38;86051;1291;98252;-58
2022/10/26 05:58:09;;;;;;;;;;;;;;;12.69;90.86;100785.89;86036;1291;89032;-59
2022/10/26 06:00:20;;;;;;;;;;;;;;;12.68;90.95;100786.83;86063;1291;94372;-60
2022/10/26 06:02:33;;;;;;;;;;;;;;;12.68;90.92;100784.41;86077;1290;81590;-58
2022/10/26 06:04:46;;;;;;;;;;;;;;;12.71;90.84;100783.69;86031;1291;82441;-59
2022/10/26 06:06:57;;;;;;;;;;;;;;;12.70;90.90;100789.36;86045;1298;98863;-58
2022/10/26 06:09:09;;;;;;;;;;;;;;;12.73;90.90;100791.42;86052;1297;89029;-58
2022/10/26 06:11:18;;;;;;;;;;;;;;;12.74;90.96;100793.99;86012;1297;95619;-58
2022/10/26 06:13:28;;;;;;;;;;;;;;;12.75;90.76;100794.70;86025;1298;81001;-58
2022/10/26 06:15:39;;;;;;;;;;;;;;;12.79;90.78;100795.49;85920;1298;82368;-58
2022/10/26 06:17:53;;;;;;;;;;;;;;;12.79;90.76;100798.51;86001;1298;98562;-59
2022/10/26 06:22:58;;;;;;;;;;;;;;;12.87;90.58;100803.75;83172;1341;599382;-58
2022/10/26 06:25:16;;;;;;;;;;;;;;;12.87;90.70;100802.20;85265;1310;78932;-59
2022/10/26 06:27:33;;;;;;;;;;;;;;;12.87;90.66;100805.96;85302;1304;79872;-59
2022/10/26 06:29:48;;;;;;;;;;;;;;;12.85;90.69;100808.92;85299;1304;96004;-59
2022/10/26 06:31:57;;;;;;;;;;;;;;;12.82;90.50;100810.45;85719;1298;85664;-59
2022/10/26 06:34:07;;;;;;;;;;;;;;;12.83;90.58;100810.17;85704;1296;94713;-59
2022/10/26 06:36:21;;;;;;;;;;;;;;;12.81;90.53;100811.62;85485;1298;412634;-59
2022/10/26 06:38:30;;;;;;;;;;;;;;;12.79;90.60;100813.73;85861;1297;81863;-60
2022/10/26 06:40:41;;;;;;;;;;;;;;;12.78;90.58;100814.71;85859;1304;97679;-60
2022/10/26 06:42:49;;;;;;;;;;;;;;;12.81;90.70;100820.14;85843;1283;89278;-59
2022/10/26 06:44:59;;;;;;;;;;;;;;;12.83;90.67;100820.81;85843;1298;95706;-59
2022/10/26 06:47:14;;;;;;;;;;;;;;;12.84;90.57;100820.70;85851;1295;81807;-60
2022/10/26 06:49:28;;;;;;;;;;;;;;;12.85;90.69;100828.85;85870;1291;81500;-60
2022/10/26 06:51:41;;;;;;;;;;;;;;;12.91;90.83;100828.31;85826;1300;97724;-59
2022/10/26 06:53:56;;;;;;;;;;;;;;;12.96;90.59;100827.91;85805;1296;88831;-59
2022/10/26 06:56:06;;;;;;;;;;;;;;;12.98;90.48;100829.89;85820;1303;95598;-58
2022/10/26 06:58:16;;;;;;;;;;;;;;;13.03;90.55;100828.48;85833;1296;82269;-58
2022/10/26 07:00:25;;;;;;;;;;;;;;;13.07;90.57;100829.53;85853;1302;82201;-58
2022/10/26 07:02:33;;;;;;;;;;;;;;;13.12;90.33;100833.46;85833;1296;96161;-58
2022/10/26 07:04:40;;;;;;;;;;;;;;;13.13;90.41;100828.52;85838;1302;88636;-58
2022/10/26 07:06:48;;;;;;;;;;;;;;;13.18;90.42;100829.48;85789;1300;94607;-57
2022/10/26 07:08:55;;;;;;;;;;;;;;;13.24;90.19;100830.04;85822;1302;82004;-57
2022/10/26 07:11:03;;;;;;;;;;;;;;;13.24;89.93;100831.52;85807;1297;82047;-58
2022/10/26 07:13:12;;;;;;;;;;;;;;;13.22;89.89;100835.86;85798;1294;96847;-58
2022/10/26 07:15:19;;;;;;;;;;;;;;;13.24;89.77;100839.13;85837;1300;88557;-57
2022/10/26 07:17:29;;;;;;;;;;;;;;;13.22;89.66;100837.60;85804;1297;95609;-58
2022/10/26 07:19:39;;;;;;;;;;;;;;;13.20;89.69;100840.52;85787;1294;82221;-58
2022/10/26 07:21:46;;;;;;;;;;;;;;;13.23;89.64;100841.17;85878;1301;81165;-58
2022/10/26 07:23:55;;;;;;;;;;;;;;;13.18;89.71;100842.63;85814;1301;98351;-58
2022/10/26 07:26:05;;;;;;;;;;;;;;;13.19;89.63;100843.55;85839;1300;90942;-58
2022/10/26 07:28:12;;;;;;;;;;;;;;;13.22;89.55;100844.70;85868;1295;95340;-58
2022/10/26 07:30:19;;;;;;;;;;;;;;;13.26;89.48;100846.78;85891;1301;80682;-58
2022/10/26 07:32:27;;;;;;;;;;;;;;;13.30;89.44;100849.48;85928;1300;82953;-58
2022/10/26 07:34:34;;;;;;;;;;;;;;;13.32;89.55;100850.50;85836;1294;97451;-59
2022/10/26 07:36:42;;;;;;;;;;;;;;;13.36;89.49;100850.67;85854;1302;89247;-58
2022/10/26 07:38:53;;;;;;;;;;;;;;;13.43;89.52;100851.19;85818;1302;95096;-58
2022/10/26 07:41:01;;;;;;;;;;;;;;;13.44;88.86;100851.52;85845;1302;81539;-57
2022/10/26 07:43:09;;;;;;;;;;;;;;;13.32;88.75;100853.64;85817;1296;81137;-58
2022/10/26 07:45:16;;;;;;;;;;;;;;;13.19;88.54;100853.27;85832;1301;96322;-58
2022/10/26 07:47:24;;;;;;;;;;;;;;;13.14;88.60;100855.52;85816;1303;88518;-58
2022/10/26 07:49:31;;;;;;;;;;;;;;;13.10;88.52;100856.07;85819;1296;95463;-58
2022/10/26 07:51:40;;;;;;;;;;;;;;;13.12;88.64;100856.63;85860;1294;79999;-58
2022/10/26 07:53:47;;;;;;;;;;;;;;;13.16;88.77;100858.75;85792;1296;80624;-59
2022/10/26 07:56:01;;;;;;;;;;;;;;;13.21;88.74;100856.13;85831;1301;97576;-58
2022/10/26 07:58:10;;;;;;;;;;;;;;;13.25;88.64;100861.75;85836;1294;87996;-58
2022/10/26 08:00:18;;;;;;;;;;;;;;;13.25;88.72;100864.84;85818;1294;95399;-59
2022/10/26 08:02:28;;;;;;;;;;;;;;;13.20;88.70;100870.55;85840;1296;81208;-59
2022/10/26 08:04:35;;;;;;;;;;;;;;;13.20;88.65;100876.53;85851;1294;83124;-57
2022/10/26 08:06:42;;;;;;;;;;;;;;;13.19;88.63;100876.64;85828;1293;96710;-59
2022/10/26 08:08:50;;;;;;;;;;;;;;;13.21;88.44;100876.20;85850;1300;86225;-59
2022/10/26 08:10:58;;;;;;;;;;;;;;;13.23;88.35;100882.36;85867;1287;94254;-58
2022/10/26 08:13:05;;;;;;;;;;;;;;;13.22;88.34;100884.02;85818;1299;81508;-58
2022/10/26 08:15:13;;;;;;;;;;;;;;;13.22;88.20;100888.14;85906;1294;82407;-59
2022/10/26 08:17:21;;;;;;;;;;;;;;;13.14;87.93;100888.62;85869;1302;98693;-58
2022/10/26 08:19:29;;;;;;;;;;;;;;;13.01;87.64;100890.45;85846;1297;87530;-58
2022/10/26 08:21:36;;;;;;;;;;;;;;;12.93;87.84;100894.80;85848;1297;95476;-59
2022/10/26 08:23:44;;;;;;;;;;;;;;;12.94;87.93;100890.05;85831;1302;80282;-58
2022/10/26 08:25:52;;;;;;;;;;;;;;;12.93;87.86;100887.42;85839;1301;80687;-59
2022/10/26 08:28:03;;;;;;;;;;;;;;;12.91;87.91;100888.65;85835;1295;98449;-58
2022/10/26 08:30:12;;;;;;;;;;;;;;;12.89;88.04;100893.09;85801;1302;88812;-58
2022/10/26 08:32:19;;;;;;;;;;;;;;;12.85;87.90;100891.08;85845;1287;94453;-58
2022/10/26 08:34:29;;;;;;;;;;;;;;;12.76;87.79;100893.95;85829;1295;80278;-58
2022/10/26 08:36:37;;;;;;;;;;;;;;;12.71;87.87;100901.14;85874;1302;81771;-59
2022/10/26 08:38:47;;;;;;;;;;;;;;;12.71;87.94;100902.98;85815;1299;98413;-57
2022/10/26 08:40:58;;;;;;;;;;;;;;;12.71;87.76;100903.43;85823;1297;88293;-58
2022/10/26 08:43:15;;;;;;;;;;;;;;;12.69;87.65;100908.48;85843;1294;95536;-58
2022/10/26 08:45:29;;;;;;;;;;;;;;;12.66;87.83;100907.66;85883;1300;81823;-57
2022/10/26 08:47:45;;;;;;;;;;;;;;;12.61;87.76;100906.53;85876;1294;82179;-57
2022/10/26 08:49:58;;;;;;;;;;;;;;;12.64;87.91;100908.07;85846;1300;98353;-57
2022/10/26 08:52:11;;;;;;;;;;;;;;;12.70;87.93;100904.30;85842;1300;87817;-59
2022/10/26 08:54:25;;;;;;;;;;;;;;;12.71;88.11;100910.02;85840;1296;95361;-58
2022/10/26 08:56:38;;;;;;;;;;;;;;;12.79;88.23;100912.45;85840;1294;81800;-58
2022/10/26 08:58:49;;;;;;;;;;;;;;;12.84;88.27;100910.52;85803;1301;81929;-59
2022/10/26 09:00:58;;;;;;;;;;;;;;;12.88;88.16;100913.59;85832;1296;98504;-59
2022/10/26 09:03:15;;;;;;;;;;;;;;;12.94;88.10;100914.46;85833;1299;88935;-58
2022/10/26 09:05:30;;;;;;;;;;;;;;;13.01;88.01;100915.95;85804;1296;94107;-58
2022/10/26 09:07:49;;;;;;;;;;;;;;;13.05;88.03;100919.08;85827;1302;81657;-58
2022/10/26 09:10:02;;;;;;;;;;;;;;;13.06;87.93;100922.73;85837;1299;82941;-58
2022/10/26 09:12:15;;;;;;;;;;;;;;;13.05;87.95;100924.09;85858;1299;97040;-58
2022/10/26 09:14:28;;;;;;;;;;;;;;;13.09;88.00;100922.20;85833;1297;88421;-58
2022/10/26 09:16:40;;;;;;;;;;;;;;;13.15;88.19;100923.84;85871;1302;94698;-58
2022/10/26 09:18:55;;;;;;;;;;;;;;;13.21;88.16;100924.76;85846;1300;80495;-58
2022/10/26 09:21:16;;;;;;;;;;;;;;;13.25;87.97;100923.00;85861;1296;82104;-58
2022/10/26 09:23:39;;;;;;;;;;;;;;;13.27;87.95;100926.73;85818;1295;97165;-59
2022/10/26 09:25:50;;;;;;;;;;;;;;;13.28;88.11;100926.15;85825;1297;87661;-60
2022/10/26 09:28:00;;;;;;;;;;;;;;;13.32;87.96;100930.52;85820;1295;95976;-58
2022/10/26 09:30:18;;;;;;;;;;;;;;;13.33;88.10;100932.09;85820;1296;81178;-59
2022/10/26 09:32:31;;;;;;;;;;;;;;;13.39;88.10;100936.82;85852;1300;82054;-57
2022/10/26 09:34:41;;;;;;;;;;;;;;;13.39;87.92;100941.91;85808;1295;99004;-58
2022/10/26 09:36:51;;;;;;;;;;;;;;;13.41;87.93;100944.64;85827;1302;89326;-58
2022/10/26 09:39:04;;;;;;;;;;;;;;;13.42;88.03;100949.09;85851;1302;94921;-58
2022/10/26 09:41:25;;;;;;;;;;;;;;;13.45;88.07;100953.24;85857;1296;82242;-59
2022/10/26 09:43:38;;;;;;;;;;;;;;;13.51;87.88;100956.05;85842;1293;82484;-59
2022/10/26 09:45:50;;;;;;;;;;;;;;;13.56;87.89;100956.65;85858;1295;96607;-58
2022/10/26 09:48:00;;;;;;;;;;;;;;;13.56;87.73;100958.11;85862;1294;88843;-58
2022/10/26 09:50:18;;;;;;;;;;;;;;;13.56;87.78;100958.66;85853;1297;94690;-58
2022/10/26 09:52:26;;;;;;;;;;;;;;;13.58;87.71;100960.05;85834;1294;82838;-58
2022/10/26 09:54:35;;;;;;;;;;;;;;;13.62;87.76;100959.41;85836;1296;81272;-59
2022/10/26 09:56:44;;;;;;;;;;;;;;;13.66;87.72;100960.29;85843;1295;98382;-59
2022/10/26 09:59:00;;;;;;;;;;;;;;;13.65;87.70;100961.67;85816;1296;86596;-59
2022/10/26 10:01:07;;;;;;;;;;;;;;;13.68;87.40;100962.48;85819;1296;95088;-59
2022/10/26 10:03:25;;;;;;;;;;;;;;;13.66;87.37;100967.92;85802;1305;80900;-59
2022/10/26 10:05:36;;;;;;;;;;;;;;;13.67;87.35;100965.34;85811;1302;82015;-58
2022/10/26 10:07:43;;;;;;;;;;;;;;;13.71;87.47;100969.39;85878;1294;97167;-58
2022/10/26 10:10:06;;;;;;;;;;;;;;;13.81;87.50;100966.15;85803;1297;88960;-59
2022/10/26 10:12:21;;;;;;;;;;;;;;;13.88;87.53;100967.88;85832;1302;95023;-58
2022/10/26 10:14:30;;;;;;;;;;;;;;;13.98;87.43;100962.97;85820;1300;80326;-59
2022/10/26 10:16:38;;;;;;;;;;;;;;;14.01;87.28;100964.54;85858;1296;81417;-59
2022/10/26 10:18:53;;;;;;;;;;;;;;;14.02;87.26;100963.79;85870;1300;97896;-59
2022/10/26 10:21:00;;;;;;;;;;;;;;;14.06;87.10;100959.23;85867;1294;87704;-57
2022/10/26 10:23:26;;;;;;;;;;;;;;;14.02;86.75;100962.25;85819;1300;95461;-58
2022/10/26 10:25:38;;;;;;;;;;;;;;;13.99;86.68;100961.47;85792;1300;79757;-59
2022/10/26 10:27:53;;;;;;;;;;;;;;;13.93;86.78;100957.45;85828;1302;82509;-58
2022/10/26 10:30:22;;;;;;;;;;;;;;;13.93;86.73;100951.15;85826;1286;98623;-58
2022/10/26 10:32:31;;;;;;;;;;;;;;;14.01;86.77;100951.20;85862;1294;88467;-58
2022/10/26 10:34:39;;;;;;;;;;;;;;;14.11;86.83;100951.02;85824;1295;94857;-58
2022/10/26 10:36:46;;;;;;;;;;;;;;;14.22;86.92;100951.56;85828;1297;81997;-58
2022/10/26 10:38:54;;;;;;;;;;;;;;;14.36;86.94;100952.05;85831;1294;82914;-59
2022/10/26 10:41:03;;;;;;;;;;;;;;;14.50;86.90;100950.08;85844;1294;96963;-59
2022/10/26 10:43:14;;;;;;;;;;;;;;;14.64;86.89;100950.61;85843;1302;87007;-59
2022/10/26 10:45:23;;;;;;;;;;;;;;;14.77;86.73;100947.15;85801;1296;93710;-59
2022/10/26 10:47:31;;;;;;;;;;;;;;;14.87;86.49;100948.56;85811;1302;82793;-58
2022/10/26 10:49:39;;;;;;;;;;;;;;;14.94;86.38;100947.39;85833;1296;82449;-58
2022/10/26 10:51:47;;;;;;;;;;;;;;;15.04;86.16;100945.91;85849;1297;98415;-58
2022/10/26 10:53:55;;;;;;;;;;;;;;;15.16;86.03;100944.17;85840;1302;88379;-57
2022/10/26 10:56:24;;;;;;;;;;;;;;;15.24;85.96;100945.27;85819;1297;94246;-58
2022/10/26 10:58:37;;;;;;;;;;;;;;;15.34;85.69;100941.08;85809;1295;80190;-59
2022/10/26 11:00:49;;;;;;;;;;;;;;;15.38;85.49;100944.35;85840;1287;80313;-59
2022/10/26 11:03:16;;;;;;;;;;;;;;;15.45;85.40;100943.08;85833;1295;97992;-58
2022/10/26 11:05:31;;;;;;;;;;;;;;;15.48;84.74;100946.17;85825;1301;88172;-58
2022/10/26 11:07:45;;;;;;;;;;;;;;;15.48;84.56;100949.96;85845;1300;93363;-60
2022/10/26 11:09:55;;;;;;;;;;;;;;;15.44;84.43;100949.10;85806;1302;80731;-59
2022/10/26 11:12:09;;;;;;;;;;;;;;;15.48;84.25;100954.32;85871;1294;83250;-58